sensor_id;sensor_type;location;lat;lon;timestamp;P1;durP1;ratioP1;P2;durP2;ratioP2
14100;SDS011;7127;49.372;8.166;2022-07-23T00:00:06;3.40;;;3.10;;
14100;SDS011;7127;49.372;8.166;2022-07-23T00:02:34;4.07;;;3.60;;
14100;SDS011;7127;49.372;8.166;2022-07-23T00:05:03;3.20;;;2.88;;
14100;SDS011;7127;49.372;8.166;2022-07-23T00:07:30;3.70;;;3.30;;
14100;SDS011;7127;49.372;8.166;2022-07-23T00:09:57;3.55;;;2.97;;
14100;SDS011;7127;49.372;8.166;2022-07-23T00:12:24;3.15;;;2.85;;
14100;SDS011;7127;49.372;8.166;2022-07-23T00:14:51;3.70;;;3.00;;
14100;SDS011;7127;49.372;8.166;2022-07-23T00:17:18;2.88;;;2.67;;
14100;SDS011;7127;49.372;8.166;2022-07-23T00:19:45;3.85;;;3.28;;
14100;SDS011;7127;49.372;8.166;2022-07-23T00:22:14;3.35;;;3.05;;
14100;SDS011;7127;49.372;8.166;2022-07-23T00:24:41;3.08;;;2.80;;
14100;SDS011;7127;49.372;8.166;2022-07-23T00:27:08;3.40;;;3.10;;
14100;SDS011;7127;49.372;8.166;2022-07-23T00:29:35;4.00;;;3.00;;
14100;SDS011;7127;49.372;8.166;2022-07-23T00:32:02;3.20;;;2.90;;
14100;SDS011;7127;49.372;8.166;2022-07-23T00:34:29;3.38;;;3.08;;
14100;SDS011;7127;49.372;8.166;2022-07-23T00:36:56;3.35;;;3.05;;
14100;SDS011;7127;49.372;8.166;2022-07-23T00:39:25;3.00;;;2.80;;
14100;SDS011;7127;49.372;8.166;2022-07-23T00:41:52;4.37;;;3.47;;
14100;SDS011;7127;49.372;8.166;2022-07-23T00:44:19;3.15;;;2.88;;
14100;SDS011;7127;49.372;8.166;2022-07-23T00:46:48;3.85;;;3.50;;
14100;SDS011;7127;49.372;8.166;2022-07-23T00:49:18;3.47;;;3.15;;
14100;SDS011;7127;49.372;8.166;2022-07-23T00:51:45;4.50;;;3.40;;
14100;SDS011;7127;49.372;8.166;2022-07-23T00:54:13;3.13;;;2.90;;
14100;SDS011;7127;49.372;8.166;2022-07-23T00:56:42;3.65;;;3.33;;
14100;SDS011;7127;49.372;8.166;2022-07-23T00:59:10;3.70;;;3.35;;
14100;SDS011;7127;49.372;8.166;2022-07-23T01:01:37;4.05;;;3.65;;
14100;SDS011;7127;49.372;8.166;2022-07-23T01:04:04;3.75;;;3.10;;
14100;SDS011;7127;49.372;8.166;2022-07-23T01:06:32;3.88;;;3.20;;
14100;SDS011;7127;49.372;8.166;2022-07-23T01:09:02;3.53;;;3.22;;
14100;SDS011;7127;49.372;8.166;2022-07-23T01:11:31;4.03;;;3.28;;
14100;SDS011;7127;49.372;8.166;2022-07-23T01:14:06;3.03;;;2.83;;
14100;SDS011;7127;49.372;8.166;2022-07-23T01:16:34;3.40;;;3.10;;
14100;SDS011;7127;49.372;8.166;2022-07-23T01:19:01;3.17;;;2.92;;
14100;SDS011;7127;49.372;8.166;2022-07-23T01:21:31;3.55;;;2.85;;
14100;SDS011;7127;49.372;8.166;2022-07-23T01:24:01;3.25;;;2.95;;
14100;SDS011;7127;49.372;8.166;2022-07-23T01:26:29;3.42;;;3.13;;
14100;SDS011;7127;49.372;8.166;2022-07-23T01:28:56;3.40;;;3.10;;
14100;SDS011;7127;49.372;8.166;2022-07-23T01:31:23;3.53;;;3.17;;
14100;SDS011;7127;49.372;8.166;2022-07-23T01:33:50;3.88;;;3.25;;
14100;SDS011;7127;49.372;8.166;2022-07-23T01:36:17;4.05;;;3.30;;
14100;SDS011;7127;49.372;8.166;2022-07-23T01:38:44;3.22;;;2.67;;
14100;SDS011;7127;49.372;8.166;2022-07-23T01:41:13;5.40;;;3.45;;
14100;SDS011;7127;49.372;8.166;2022-07-23T01:43:40;3.40;;;3.10;;
14100;SDS011;7127;49.372;8.166;2022-07-23T01:46:06;3.83;;;3.42;;
14100;SDS011;7127;49.372;8.166;2022-07-23T01:48:34;3.67;;;3.38;;
14100;SDS011;7127;49.372;8.166;2022-07-23T01:51:01;4.90;;;3.55;;
14100;SDS011;7127;49.372;8.166;2022-07-23T01:53:28;3.50;;;3.20;;
14100;SDS011;7127;49.372;8.166;2022-07-23T01:55:56;3.58;;;3.30;;
14100;SDS011;7127;49.372;8.166;2022-07-23T01:58:25;3.53;;;2.97;;
14100;SDS011;7127;49.372;8.166;2022-07-23T02:00:52;3.55;;;3.25;;
14100;SDS011;7127;49.372;8.166;2022-07-23T02:03:20;4.05;;;3.33;;
14100;SDS011;7127;49.372;8.166;2022-07-23T02:05:47;3.43;;;3.03;;
14100;SDS011;7127;49.372;8.166;2022-07-23T02:08:15;3.58;;;3.28;;
14100;SDS011;7127;49.372;8.166;2022-07-23T02:10:42;3.55;;;3.25;;
14100;SDS011;7127;49.372;8.166;2022-07-23T02:13:09;3.67;;;3.38;;
14100;SDS011;7127;49.372;8.166;2022-07-23T02:15:38;4.75;;;3.40;;
14100;SDS011;7127;49.372;8.166;2022-07-23T02:18:05;3.60;;;3.30;;
14100;SDS011;7127;49.372;8.166;2022-07-23T02:20:33;3.38;;;3.13;;
14100;SDS011;7127;49.372;8.166;2022-07-23T02:23:03;3.67;;;3.10;;
14100;SDS011;7127;49.372;8.166;2022-07-23T02:25:30;3.60;;;3.30;;
14100;SDS011;7127;49.372;8.166;2022-07-23T02:27:57;3.67;;;3.38;;
14100;SDS011;7127;49.372;8.166;2022-07-23T02:30:24;3.53;;;3.10;;
14100;SDS011;7127;49.372;8.166;2022-07-23T02:32:53;3.80;;;3.40;;
14100;SDS011;7127;49.372;8.166;2022-07-23T02:35:20;3.07;;;2.87;;
14100;SDS011;7127;49.372;8.166;2022-07-23T02:37:47;2.90;;;2.70;;
14100;SDS011;7127;49.372;8.166;2022-07-23T02:40:14;3.05;;;2.85;;
14100;SDS011;7127;49.372;8.166;2022-07-23T02:42:40;3.00;;;2.80;;
14100;SDS011;7127;49.372;8.166;2022-07-23T02:45:08;3.30;;;3.00;;
14100;SDS011;7127;49.372;8.166;2022-07-23T02:47:35;3.17;;;2.90;;
14100;SDS011;7127;49.372;8.166;2022-07-23T02:50:04;3.27;;;3.07;;
14100;SDS011;7127;49.372;8.166;2022-07-23T02:52:32;4.03;;;3.73;;
14100;SDS011;7127;49.372;8.166;2022-07-23T02:54:59;3.93;;;3.57;;
14100;SDS011;7127;49.372;8.166;2022-07-23T02:57:26;3.70;;;3.40;;
14100;SDS011;7127;49.372;8.166;2022-07-23T02:59:53;3.40;;;3.10;;
14100;SDS011;7127;49.372;8.166;2022-07-23T03:02:20;5.00;;;2.80;;
14100;SDS011;7127;49.372;8.166;2022-07-23T03:04:47;4.00;;;3.15;;
14100;SDS011;7127;49.372;8.166;2022-07-23T03:07:16;3.77;;;3.37;;
14100;SDS011;7127;49.372;8.166;2022-07-23T03:09:43;3.80;;;3.50;;
14100;SDS011;7127;49.372;8.166;2022-07-23T03:12:10;3.83;;;2.97;;
14100;SDS011;7127;49.372;8.166;2022-07-23T03:14:37;3.40;;;3.10;;
14100;SDS011;7127;49.372;8.166;2022-07-23T03:17:04;3.80;;;3.50;;
14100;SDS011;7127;49.372;8.166;2022-07-23T03:19:31;3.80;;;3.47;;
14100;SDS011;7127;49.372;8.166;2022-07-23T03:21:58;3.70;;;3.40;;
14100;SDS011;7127;49.372;8.166;2022-07-23T03:24:26;3.47;;;3.20;;
14100;SDS011;7127;49.372;8.166;2022-07-23T03:27:14;3.23;;;2.93;;
14100;SDS011;7127;49.372;8.166;2022-07-23T03:29:41;3.35;;;3.05;;
14100;SDS011;7127;49.372;8.166;2022-07-23T03:32:08;2.93;;;2.70;;
14100;SDS011;7127;49.372;8.166;2022-07-23T03:34:35;2.80;;;2.60;;
14100;SDS011;7127;49.372;8.166;2022-07-23T03:37:02;3.92;;;3.42;;
14100;SDS011;7127;49.372;8.166;2022-07-23T03:39:31;3.70;;;3.40;;
14100;SDS011;7127;49.372;8.166;2022-07-23T03:41:58;3.70;;;3.40;;
14100;SDS011;7127;49.372;8.166;2022-07-23T03:44:25;3.40;;;3.10;;
14100;SDS011;7127;49.372;8.166;2022-07-23T03:46:52;4.00;;;3.60;;
14100;SDS011;7127;49.372;8.166;2022-07-23T03:49:19;3.80;;;3.37;;
14100;SDS011;7127;49.372;8.166;2022-07-23T03:51:46;3.60;;;3.30;;
14100;SDS011;7127;49.372;8.166;2022-07-23T03:54:13;3.97;;;3.63;;
14100;SDS011;7127;49.372;8.166;2022-07-23T03:56:42;3.70;;;3.40;;
14100;SDS011;7127;49.372;8.166;2022-07-23T03:59:09;3.75;;;3.42;;
14100;SDS011;7127;49.372;8.166;2022-07-23T04:01:36;5.13;;;3.50;;
14100;SDS011;7127;49.372;8.166;2022-07-23T04:04:03;3.50;;;3.20;;
14100;SDS011;7127;49.372;8.166;2022-07-23T04:06:30;3.63;;;3.20;;
14100;SDS011;7127;49.372;8.166;2022-07-23T04:08:57;3.63;;;3.33;;
14100;SDS011;7127;49.372;8.166;2022-07-23T04:11:24;3.90;;;3.50;;
14100;SDS011;7127;49.372;8.166;2022-07-23T04:13:53;3.50;;;3.20;;
14100;SDS011;7127;49.372;8.166;2022-07-23T04:16:20;3.87;;;3.57;;
14100;SDS011;7127;49.372;8.166;2022-07-23T04:18:47;3.73;;;3.43;;
14100;SDS011;7127;49.372;8.166;2022-07-23T04:21:14;3.80;;;3.50;;
14100;SDS011;7127;49.372;8.166;2022-07-23T04:23:41;3.70;;;3.40;;
14100;SDS011;7127;49.372;8.166;2022-07-23T04:26:08;4.87;;;3.40;;
14100;SDS011;7127;49.372;8.166;2022-07-23T04:28:35;4.20;;;3.90;;
14100;SDS011;7127;49.372;8.166;2022-07-23T04:31:03;3.60;;;3.30;;
14100;SDS011;7127;49.372;8.166;2022-07-23T04:33:30;4.00;;;3.53;;
14100;SDS011;7127;49.372;8.166;2022-07-23T04:35:57;3.97;;;3.57;;
14100;SDS011;7127;49.372;8.166;2022-07-23T04:38:24;4.17;;;3.77;;
14100;SDS011;7127;49.372;8.166;2022-07-23T04:40:51;3.80;;;3.40;;
14100;SDS011;7127;49.372;8.166;2022-07-23T04:43:18;4.50;;;3.23;;
14100;SDS011;7127;49.372;8.166;2022-07-23T04:45:45;3.37;;;3.10;;
14100;SDS011;7127;49.372;8.166;2022-07-23T04:48:14;3.83;;;3.30;;
14100;SDS011;7127;49.372;8.166;2022-07-23T04:50:41;3.83;;;3.53;;
14100;SDS011;7127;49.372;8.166;2022-07-23T04:53:08;4.13;;;3.73;;
14100;SDS011;7127;49.372;8.166;2022-07-23T04:55:35;4.20;;;3.83;;
14100;SDS011;7127;49.372;8.166;2022-07-23T04:58:02;4.93;;;3.97;;
14100;SDS011;7127;49.372;8.166;2022-07-23T05:00:29;5.00;;;4.17;;
14100;SDS011;7127;49.372;8.166;2022-07-23T05:02:56;4.20;;;3.80;;
14100;SDS011;7127;49.372;8.166;2022-07-23T05:05:25;3.87;;;3.47;;
14100;SDS011;7127;49.372;8.166;2022-07-23T05:07:52;4.53;;;3.37;;
14100;SDS011;7127;49.372;8.166;2022-07-23T05:10:19;4.10;;;3.70;;
14100;SDS011;7127;49.372;8.166;2022-07-23T05:12:46;3.40;;;3.13;;
14100;SDS011;7127;49.372;8.166;2022-07-23T05:15:13;3.77;;;3.47;;
14100;SDS011;7127;49.372;8.166;2022-07-23T05:17:40;3.93;;;3.53;;
14100;SDS011;7127;49.372;8.166;2022-07-23T05:20:07;3.47;;;3.17;;
14100;SDS011;7127;49.372;8.166;2022-07-23T05:22:36;4.20;;;3.80;;
14100;SDS011;7127;49.372;8.166;2022-07-23T05:25:03;4.43;;;3.87;;
14100;SDS011;7127;49.372;8.166;2022-07-23T05:27:30;4.87;;;4.27;;
14100;SDS011;7127;49.372;8.166;2022-07-23T05:29:57;4.47;;;4.07;;
14100;SDS011;7127;49.372;8.166;2022-07-23T05:32:24;4.43;;;3.73;;
14100;SDS011;7127;49.372;8.166;2022-07-23T05:34:51;4.13;;;3.73;;
14100;SDS011;7127;49.372;8.166;2022-07-23T05:37:18;4.47;;;3.60;;
14100;SDS011;7127;49.372;8.166;2022-07-23T05:39:47;3.33;;;3.07;;
14100;SDS011;7127;49.372;8.166;2022-07-23T05:42:13;3.70;;;3.40;;
14100;SDS011;7127;49.372;8.166;2022-07-23T05:44:40;3.67;;;3.37;;
14100;SDS011;7127;49.372;8.166;2022-07-23T05:47:08;3.70;;;3.40;;
14100;SDS011;7127;49.372;8.166;2022-07-23T05:49:36;3.60;;;3.30;;
14100;SDS011;7127;49.372;8.166;2022-07-23T05:52:04;3.57;;;3.27;;
14100;SDS011;7127;49.372;8.166;2022-07-23T05:54:33;4.20;;;3.47;;
14100;SDS011;7127;49.372;8.166;2022-07-23T05:57:02;3.47;;;3.17;;
14100;SDS011;7127;49.372;8.166;2022-07-23T05:59:29;3.80;;;3.50;;
14100;SDS011;7127;49.372;8.166;2022-07-23T06:01:56;3.17;;;2.97;;
14100;SDS011;7127;49.372;8.166;2022-07-23T06:04:23;3.70;;;3.40;;
14100;SDS011;7127;49.372;8.166;2022-07-23T06:06:50;4.87;;;3.60;;
14100;SDS011;7127;49.372;8.166;2022-07-23T06:09:17;3.53;;;3.23;;
14100;SDS011;7127;49.372;8.166;2022-07-23T06:11:44;3.93;;;3.63;;
14100;SDS011;7127;49.372;8.166;2022-07-23T06:14:13;4.03;;;3.67;;
14100;SDS011;7127;49.372;8.166;2022-07-23T06:16:40;3.80;;;3.47;;
14100;SDS011;7127;49.372;8.166;2022-07-23T06:19:07;4.17;;;3.77;;
14100;SDS011;7127;49.372;8.166;2022-07-23T06:21:33;3.93;;;3.53;;
14100;SDS011;7127;49.372;8.166;2022-07-23T06:24:00;4.63;;;3.60;;
14100;SDS011;7127;49.372;8.166;2022-07-23T06:26:27;3.53;;;3.23;;
14100;SDS011;7127;49.372;8.166;2022-07-23T06:28:54;3.53;;;3.23;;
14100;SDS011;7127;49.372;8.166;2022-07-23T06:31:23;4.23;;;3.57;;
14100;SDS011;7127;49.372;8.166;2022-07-23T06:33:49;3.80;;;3.50;;
14100;SDS011;7127;49.372;8.166;2022-07-23T06:36:16;3.43;;;3.13;;
14100;SDS011;7127;49.372;8.166;2022-07-23T06:38:43;3.47;;;3.17;;
14100;SDS011;7127;49.372;8.166;2022-07-23T06:41:10;4.07;;;3.73;;
14100;SDS011;7127;49.372;8.166;2022-07-23T06:43:37;3.63;;;3.33;;
14100;SDS011;7127;49.372;8.166;2022-07-23T06:46:05;3.83;;;3.53;;
14100;SDS011;7127;49.372;8.166;2022-07-23T06:48:33;3.57;;;3.27;;
14100;SDS011;7127;49.372;8.166;2022-07-23T06:51:00;4.70;;;3.60;;
14100;SDS011;7127;49.372;8.166;2022-07-23T06:53:27;3.40;;;3.10;;
14100;SDS011;7127;49.372;8.166;2022-07-23T06:55:55;4.03;;;3.70;;
14100;SDS011;7127;49.372;8.166;2022-07-23T06:58:22;3.83;;;3.53;;
14100;SDS011;7127;49.372;8.166;2022-07-23T07:00:49;3.27;;;2.97;;
14100;SDS011;7127;49.372;8.166;2022-07-23T07:03:17;3.77;;;3.47;;
14100;SDS011;7127;49.372;8.166;2022-07-23T07:05:45;3.53;;;3.10;;
14100;SDS011;7127;49.372;8.166;2022-07-23T07:08:12;3.50;;;3.20;;
14100;SDS011;7127;49.372;8.166;2022-07-23T07:10:39;3.57;;;3.27;;
14100;SDS011;7127;49.372;8.166;2022-07-23T07:13:06;3.77;;;3.47;;
14100;SDS011;7127;49.372;8.166;2022-07-23T07:15:33;3.67;;;3.37;;
14100;SDS011;7127;49.372;8.166;2022-07-23T07:18:00;3.45;;;3.15;;
14100;SDS011;7127;49.372;8.166;2022-07-23T07:20:27;3.77;;;3.47;;
14100;SDS011;7127;49.372;8.166;2022-07-23T07:22:55;3.83;;;3.47;;
14100;SDS011;7127;49.372;8.166;2022-07-23T07:25:22;3.10;;;2.90;;
14100;SDS011;7127;49.372;8.166;2022-07-23T07:27:49;3.60;;;3.30;;
14100;SDS011;7127;49.372;8.166;2022-07-23T07:30:17;3.95;;;3.65;;
14100;SDS011;7127;49.372;8.166;2022-07-23T07:32:44;3.65;;;3.40;;
14100;SDS011;7127;49.372;8.166;2022-07-23T07:35:11;3.85;;;3.55;;
14100;SDS011;7127;49.372;8.166;2022-07-23T07:37:38;4.20;;;3.40;;
14100;SDS011;7127;49.372;8.166;2022-07-23T07:40:07;3.50;;;3.20;;
14100;SDS011;7127;49.372;8.166;2022-07-23T07:42:34;3.55;;;3.25;;
14100;SDS011;7127;49.372;8.166;2022-07-23T07:45:10;3.60;;;3.30;;
14100;SDS011;7127;49.372;8.166;2022-07-23T07:47:38;3.75;;;3.47;;
14100;SDS011;7127;49.372;8.166;2022-07-23T07:50:05;4.07;;;3.72;;
14100;SDS011;7127;49.372;8.166;2022-07-23T07:52:33;3.72;;;3.42;;
14100;SDS011;7127;49.372;8.166;2022-07-23T07:55:01;3.85;;;3.55;;
14100;SDS011;7127;49.372;8.166;2022-07-23T07:57:30;3.72;;;3.40;;
14100;SDS011;7127;49.372;8.166;2022-07-23T07:59:57;4.38;;;3.58;;
14100;SDS011;7127;49.372;8.166;2022-07-23T08:02:24;3.72;;;3.40;;
14100;SDS011;7127;49.372;8.166;2022-07-23T08:04:52;4.03;;;3.67;;
14100;SDS011;7127;49.372;8.166;2022-07-23T08:07:19;4.40;;;3.33;;
14100;SDS011;7127;49.372;8.166;2022-07-23T08:09:46;3.90;;;3.60;;
14100;SDS011;7127;49.372;8.166;2022-07-23T08:12:13;3.92;;;3.63;;
14100;SDS011;7127;49.372;8.166;2022-07-23T08:14:41;3.97;;;3.60;;
14100;SDS011;7127;49.372;8.166;2022-07-23T08:17:09;3.97;;;3.60;;
14100;SDS011;7127;49.372;8.166;2022-07-23T08:19:36;3.67;;;3.35;;
14100;SDS011;7127;49.372;8.166;2022-07-23T08:22:03;4.03;;;3.53;;
14100;SDS011;7127;49.372;8.166;2022-07-23T08:24:30;3.90;;;3.60;;
14100;SDS011;7127;49.372;8.166;2022-07-23T08:26:58;3.72;;;3.42;;
14100;SDS011;7127;49.372;8.166;2022-07-23T08:29:25;3.97;;;3.67;;
14100;SDS011;7127;49.372;8.166;2022-07-23T08:31:53;4.30;;;3.90;;
14100;SDS011;7127;49.372;8.166;2022-07-23T08:34:20;3.88;;;3.58;;
14100;SDS011;7127;49.372;8.166;2022-07-23T08:36:47;4.47;;;4.07;;
14100;SDS011;7127;49.372;8.166;2022-07-23T08:39:14;3.83;;;3.50;;
14100;SDS011;7127;49.372;8.166;2022-07-23T08:41:41;4.45;;;4.05;;
14100;SDS011;7127;49.372;8.166;2022-07-23T08:44:08;4.30;;;3.90;;
14100;SDS011;7127;49.372;8.166;2022-07-23T08:46:35;4.78;;;3.72;;
14100;SDS011;7127;49.372;8.166;2022-07-23T08:49:06;3.60;;;3.30;;
14100;SDS011;7127;49.372;8.166;2022-07-23T08:51:34;4.30;;;3.90;;
14100;SDS011;7127;49.372;8.166;2022-07-23T08:54:01;3.95;;;3.65;;
14100;SDS011;7127;49.372;8.166;2022-07-23T08:56:29;4.28;;;3.85;;
14100;SDS011;7127;49.372;8.166;2022-07-23T08:58:56;4.22;;;3.92;;
14100;SDS011;7127;49.372;8.166;2022-07-23T09:01:24;4.80;;;4.40;;
14100;SDS011;7127;49.372;8.166;2022-07-23T09:03:51;4.03;;;3.72;;
14100;SDS011;7127;49.372;8.166;2022-07-23T09:06:19;3.60;;;3.30;;
14100;SDS011;7127;49.372;8.166;2022-07-23T09:08:46;4.03;;;3.55;;
14100;SDS011;7127;49.372;8.166;2022-07-23T09:11:15;3.90;;;3.60;;
14100;SDS011;7127;49.372;8.166;2022-07-23T09:13:45;4.07;;;3.78;;
14100;SDS011;7127;49.372;8.166;2022-07-23T09:16:14;4.55;;;4.15;;
14100;SDS011;7127;49.372;8.166;2022-07-23T09:18:45;4.72;;;3.90;;
14100;SDS011;7127;49.372;8.166;2022-07-23T09:21:15;4.82;;;4.15;;
14100;SDS011;7127;49.372;8.166;2022-07-23T09:23:50;4.35;;;3.95;;
14100;SDS011;7127;49.372;8.166;2022-07-23T09:26:21;4.78;;;4.38;;
14100;SDS011;7127;49.372;8.166;2022-07-23T09:28:51;4.20;;;3.80;;
14100;SDS011;7127;49.372;8.166;2022-07-23T09:31:19;4.43;;;4.03;;
14100;SDS011;7127;49.372;8.166;2022-07-23T09:33:46;4.80;;;4.10;;
14100;SDS011;7127;49.372;8.166;2022-07-23T09:36:13;4.20;;;3.80;;
14100;SDS011;7127;49.372;8.166;2022-07-23T09:38:49;5.60;;;4.60;;
14100;SDS011;7127;49.372;8.166;2022-07-23T09:41:16;4.35;;;3.95;;
14100;SDS011;7127;49.372;8.166;2022-07-23T09:43:44;4.25;;;3.95;;
14100;SDS011;7127;49.372;8.166;2022-07-23T09:46:17;4.63;;;4.22;;
14100;SDS011;7127;49.372;8.166;2022-07-23T09:48:45;3.85;;;3.55;;
14100;SDS011;7127;49.372;8.166;2022-07-23T09:51:13;4.10;;;3.58;;
14100;SDS011;7127;49.372;8.166;2022-07-23T09:53:41;4.50;;;3.88;;
14100;SDS011;7127;49.372;8.166;2022-07-23T10:01:43;4.10;;;3.80;;
14100;SDS011;7127;49.372;8.166;2022-07-23T10:04:10;4.30;;;4.00;;
14100;SDS011;7127;49.372;8.166;2022-07-23T10:06:38;4.28;;;3.88;;
14100;SDS011;7127;49.372;8.166;2022-07-23T10:09:05;4.70;;;4.20;;
14100;SDS011;7127;49.372;8.166;2022-07-23T10:11:37;4.25;;;3.95;;
14100;SDS011;7127;49.372;8.166;2022-07-23T10:14:04;5.65;;;5.10;;
14100;SDS011;7127;49.372;8.166;2022-07-23T10:16:32;4.45;;;4.05;;
14100;SDS011;7127;49.372;8.166;2022-07-23T10:19:00;5.03;;;4.63;;
14100;SDS011;7127;49.372;8.166;2022-07-23T10:21:30;4.07;;;3.78;;
14100;SDS011;7127;49.372;8.166;2022-07-23T10:24:10;4.28;;;3.88;;
14100;SDS011;7127;49.372;8.166;2022-07-23T10:26:46;4.40;;;4.00;;
14100;SDS011;7127;49.372;8.166;2022-07-23T10:29:24;3.80;;;3.50;;
14100;SDS011;7127;49.372;8.166;2022-07-23T10:32:07;3.92;;;3.63;;
14100;SDS011;7127;49.372;8.166;2022-07-23T10:34:50;4.00;;;3.70;;
14100;SDS011;7127;49.372;8.166;2022-07-23T10:37:21;4.70;;;4.30;;
14100;SDS011;7127;49.372;8.166;2022-07-23T10:40:08;4.00;;;3.70;;
14100;SDS011;7127;49.372;8.166;2022-07-23T10:42:36;4.10;;;3.80;;
14100;SDS011;7127;49.372;8.166;2022-07-23T10:47:49;4.05;;;3.75;;
14100;SDS011;7127;49.372;8.166;2022-07-23T10:50:22;3.97;;;3.67;;
14100;SDS011;7127;49.372;8.166;2022-07-23T10:53:08;4.53;;;4.13;;
14100;SDS011;7127;49.372;8.166;2022-07-23T10:55:45;4.88;;;4.47;;
14100;SDS011;7127;49.372;8.166;2022-07-23T10:58:17;4.05;;;3.72;;
14100;SDS011;7127;49.372;8.166;2022-07-23T11:01:08;3.90;;;3.60;;
14100;SDS011;7127;49.372;8.166;2022-07-23T11:03:59;4.15;;;3.75;;
14100;SDS011;7127;49.372;8.166;2022-07-23T11:09:26;4.45;;;4.05;;
14100;SDS011;7127;49.372;8.166;2022-07-23T11:14:58;3.97;;;3.67;;
14100;SDS011;7127;49.372;8.166;2022-07-23T11:17:27;3.78;;;3.47;;
14100;SDS011;7127;49.372;8.166;2022-07-23T11:20:15;3.80;;;3.38;;
14100;SDS011;7127;49.372;8.166;2022-07-23T11:22:47;3.65;;;3.35;;
14100;SDS011;7127;49.372;8.166;2022-07-23T11:25:30;4.30;;;3.38;;
14100;SDS011;7127;49.372;8.166;2022-07-23T11:28:13;3.70;;;3.40;;
14100;SDS011;7127;49.372;8.166;2022-07-23T11:30:43;3.65;;;3.35;;
14100;SDS011;7127;49.372;8.166;2022-07-23T11:33:19;3.90;;;3.60;;
14100;SDS011;7127;49.372;8.166;2022-07-23T11:35:48;3.60;;;3.30;;
14100;SDS011;7127;49.372;8.166;2022-07-23T11:38:26;3.92;;;3.63;;
14100;SDS011;7127;49.372;8.166;2022-07-23T11:40:54;4.30;;;3.90;;
14100;SDS011;7127;49.372;8.166;2022-07-23T11:43:23;3.75;;;3.45;;
14100;SDS011;7127;49.372;8.166;2022-07-23T11:45:50;5.43;;;3.95;;
14100;SDS011;7127;49.372;8.166;2022-07-23T11:48:21;3.97;;;3.67;;
14100;SDS011;7127;49.372;8.166;2022-07-23T11:50:49;3.95;;;3.65;;
14100;SDS011;7127;49.372;8.166;2022-07-23T11:53:23;5.00;;;4.38;;
14100;SDS011;7127;49.372;8.166;2022-07-23T11:55:51;4.45;;;4.05;;
14100;SDS011;7127;49.372;8.166;2022-07-23T11:58:19;3.95;;;3.65;;
14100;SDS011;7127;49.372;8.166;2022-07-23T12:00:46;4.32;;;3.92;;
14100;SDS011;7127;49.372;8.166;2022-07-23T12:03:13;3.88;;;3.55;;
14100;SDS011;7127;49.372;8.166;2022-07-23T12:05:42;4.28;;;3.90;;
14100;SDS011;7127;49.372;8.166;2022-07-23T12:08:09;4.50;;;4.10;;
14100;SDS011;7127;49.372;8.166;2022-07-23T12:10:38;3.78;;;3.47;;
14100;SDS011;7127;49.372;8.166;2022-07-23T12:13:09;4.07;;;3.72;;
14100;SDS011;7127;49.372;8.166;2022-07-23T12:15:38;3.78;;;3.47;;
14100;SDS011;7127;49.372;8.166;2022-07-23T12:18:08;4.40;;;3.85;;
14100;SDS011;7127;49.372;8.166;2022-07-23T12:20:36;3.65;;;3.03;;
14100;SDS011;7127;49.372;8.166;2022-07-23T12:23:06;3.08;;;2.88;;
14100;SDS011;7127;49.372;8.166;2022-07-23T12:25:35;3.38;;;3.08;;
14100;SDS011;7127;49.372;8.166;2022-07-23T12:28:05;3.67;;;3.38;;
14100;SDS011;7127;49.372;8.166;2022-07-23T12:30:34;3.88;;;3.58;;
14100;SDS011;7127;49.372;8.166;2022-07-23T12:33:04;3.60;;;3.30;;
14100;SDS011;7127;49.372;8.166;2022-07-23T12:35:35;3.38;;;3.08;;
14100;SDS011;7127;49.372;8.166;2022-07-23T12:38:08;4.18;;;3.78;;
14100;SDS011;7127;49.372;8.166;2022-07-23T12:40:36;4.32;;;4.03;;
14100;SDS011;7127;49.372;8.166;2022-07-23T12:43:10;5.13;;;4.72;;
14100;SDS011;7127;49.372;8.166;2022-07-23T12:45:45;4.93;;;4.53;;
14100;SDS011;7127;49.372;8.166;2022-07-23T12:48:21;4.07;;;3.78;;
14100;SDS011;7127;49.372;8.166;2022-07-23T12:50:50;4.45;;;4.05;;
14100;SDS011;7127;49.372;8.166;2022-07-23T12:53:21;4.50;;;4.10;;
14100;SDS011;7127;49.372;8.166;2022-07-23T12:55:49;4.25;;;3.85;;
14100;SDS011;7127;49.372;8.166;2022-07-23T12:58:22;4.38;;;3.97;;
14100;SDS011;7127;49.372;8.166;2022-07-23T13:00:53;5.05;;;4.32;;
14100;SDS011;7127;49.372;8.166;2022-07-23T13:03:22;4.30;;;4.00;;
14100;SDS011;7127;49.372;8.166;2022-07-23T13:05:50;4.00;;;3.60;;
14100;SDS011;7127;49.372;8.166;2022-07-23T13:08:17;3.72;;;3.42;;
14100;SDS011;7127;49.372;8.166;2022-07-23T13:10:46;5.45;;;3.80;;
14100;SDS011;7127;49.372;8.166;2022-07-23T13:13:16;4.88;;;3.78;;
14100;SDS011;7127;49.372;8.166;2022-07-23T13:15:43;3.75;;;3.45;;
14100;SDS011;7127;49.372;8.166;2022-07-23T13:18:10;4.03;;;3.72;;
14100;SDS011;7127;49.372;8.166;2022-07-23T13:20:37;3.78;;;3.47;;
14100;SDS011;7127;49.372;8.166;2022-07-23T13:23:04;3.90;;;3.60;;
14100;SDS011;7127;49.372;8.166;2022-07-23T13:25:33;3.85;;;3.55;;
14100;SDS011;7127;49.372;8.166;2022-07-23T13:28:00;3.60;;;3.40;;
14100;SDS011;7127;49.372;8.166;2022-07-23T13:30:27;3.35;;;3.05;;
14100;SDS011;7127;49.372;8.166;2022-07-23T13:32:54;3.42;;;3.13;;
14100;SDS011;7127;49.372;8.166;2022-07-23T13:35:21;3.90;;;3.60;;
14100;SDS011;7127;49.372;8.166;2022-07-23T13:37:48;3.90;;;3.60;;
14100;SDS011;7127;49.372;8.166;2022-07-23T13:40:15;3.70;;;3.40;;
14100;SDS011;7127;49.372;8.166;2022-07-23T13:42:44;3.70;;;3.40;;
14100;SDS011;7127;49.372;8.166;2022-07-23T13:45:11;3.50;;;3.22;;
14100;SDS011;7127;49.372;8.166;2022-07-23T13:47:38;3.25;;;2.95;;
14100;SDS011;7127;49.372;8.166;2022-07-23T13:50:05;3.55;;;3.25;;
14100;SDS011;7127;49.372;8.166;2022-07-23T13:52:32;3.70;;;3.38;;
14100;SDS011;7127;49.372;8.166;2022-07-23T13:55:00;3.60;;;3.30;;
14100;SDS011;7127;49.372;8.166;2022-07-23T13:57:28;3.53;;;3.22;;
14100;SDS011;7127;49.372;8.166;2022-07-23T13:59:57;3.20;;;2.95;;
14100;SDS011;7127;49.372;8.166;2022-07-23T14:02:24;3.63;;;3.25;;
14100;SDS011;7127;49.372;8.166;2022-07-23T14:04:51;3.58;;;3.28;;
14100;SDS011;7127;49.372;8.166;2022-07-23T14:07:19;3.88;;;3.58;;
14100;SDS011;7127;49.372;8.166;2022-07-23T14:09:46;3.90;;;3.60;;
14100;SDS011;7127;49.372;8.166;2022-07-23T14:12:13;3.75;;;3.00;;
14100;SDS011;7127;49.372;8.166;2022-07-23T14:14:40;3.42;;;3.17;;
14100;SDS011;7127;49.372;8.166;2022-07-23T14:17:09;4.20;;;3.83;;
14100;SDS011;7127;49.372;8.166;2022-07-23T14:19:36;3.67;;;3.38;;
14100;SDS011;7127;49.372;8.166;2022-07-23T14:22:03;3.80;;;3.50;;
14100;SDS011;7127;49.372;8.166;2022-07-23T14:24:30;3.83;;;3.53;;
14100;SDS011;7127;49.372;8.166;2022-07-23T14:26:59;3.75;;;3.45;;
14100;SDS011;7127;49.372;8.166;2022-07-23T14:29:26;3.35;;;3.15;;
14100;SDS011;7127;49.372;8.166;2022-07-23T14:31:53;3.47;;;3.17;;
14100;SDS011;7127;49.372;8.166;2022-07-23T14:34:22;5.25;;;3.30;;
14100;SDS011;7127;49.372;8.166;2022-07-23T14:36:49;3.58;;;3.28;;
14100;SDS011;7127;49.372;8.166;2022-07-23T14:39:16;3.60;;;3.30;;
14100;SDS011;7127;49.372;8.166;2022-07-23T14:41:43;3.38;;;3.08;;
14100;SDS011;7127;49.372;8.166;2022-07-23T14:44:10;3.33;;;3.03;;
14100;SDS011;7127;49.372;8.166;2022-07-23T14:46:37;3.60;;;3.30;;
14100;SDS011;7127;49.372;8.166;2022-07-23T14:49:04;4.07;;;3.40;;
14100;SDS011;7127;49.372;8.166;2022-07-23T14:51:32;3.38;;;3.10;;
14100;SDS011;7127;49.372;8.166;2022-07-23T14:53:59;3.80;;;3.50;;
14100;SDS011;7127;49.372;8.166;2022-07-23T14:56:26;3.70;;;3.40;;
14100;SDS011;7127;49.372;8.166;2022-07-23T14:58:53;3.17;;;2.97;;
14100;SDS011;7127;49.372;8.166;2022-07-23T15:01:20;3.15;;;2.95;;
14100;SDS011;7127;49.372;8.166;2022-07-23T15:03:47;3.72;;;3.30;;
14100;SDS011;7127;49.372;8.166;2022-07-23T15:06:15;3.67;;;3.38;;
14100;SDS011;7127;49.372;8.166;2022-07-23T15:08:44;3.85;;;3.55;;
14100;SDS011;7127;49.372;8.166;2022-07-23T15:11:11;3.47;;;3.20;;
14100;SDS011;7127;49.372;8.166;2022-07-23T15:13:38;3.63;;;3.33;;
14100;SDS011;7127;49.372;8.166;2022-07-23T15:16:05;3.22;;;3.03;;
14100;SDS011;7127;49.372;8.166;2022-07-23T15:18:33;4.13;;;3.08;;
14100;SDS011;7127;49.372;8.166;2022-07-23T15:21:00;3.65;;;3.35;;